Ionian Princess — SY6620 — position and weather

sailwx.info

Track history (hours):
 
Tides and Currents Weather Stations Pressure Air Temp Water Temp Dewpoint Dewpoint Depression Visibility Wind Speed Wind Dir Waves Ship Positions

Ionian Princess

Last reported at 2018-Jul-18 13:30 UTC. Time now 2018-Jul-18 14:32 UTC.
Position N 37°24' E 025°01'.

Length 42 m; draft 3 m.

Type: Ship. MMSI: 240518000.

Date/timePositionNaut miles runAvg speedWind from/ knotsBaromVisibWave heightAir tempDewpointWater temp
2018-Jul-18 13:30N 37°24' E 025°01'5 4.2
2018-Jul-18 12:25N 37°27' E 024°57'0 0.0
2018-Jul-17 17:28N 37°27' E 024°57'0 0.0
2018-Jul-17 11:44N 37°26' E 024°57'2 8.9
2018-Jul-17 11:30N 37°28' E 024°58'711.7
2018-Jul-17 10:56N 37°32' E 024°51'46 2.4
2018-Jul-16 15:11N 37°40' E 023°53'211.9
2018-Jul-16 15:00N 37°42' E 023°51'712.1
2018-Jul-16 14:27N 37°47' E 023°46'511.9
2018-Jul-16 14:00N 37°52' E 023°43'4 8.4
2018-Jul-16 13:30N 37°56' E 023°41'0 0.0
2018-Jul-16 13:00N 37°56' E 023°41'0 0.0
2018-Jul-16 12:30N 37°56' E 023°41'0 0.0
2018-Jul-16 11:57N 37°56' E 023°41'0 0.0
2018-Jul-16 11:30N 37°56' E 023°41'0 0.0
2018-Jul-16 11:00N 37°56' E 023°41'0 0.0
2018-Jul-16 10:27N 37°56' E 023°41'0 0.0
2018-Jul-16 10:00N 37°56' E 023°41'0 0.0
2018-Jul-16 09:30N 37°56' E 023°41'0 0.0
2018-Jul-16 09:00N 37°56' E 023°41'0 0.0
2018-Jul-16 08:30N 37°56' E 023°41'0 0.0
2018-Jul-16 08:00N 37°56' E 023°41'0 0.0
2018-Jul-16 07:30N 37°56' E 023°41'0 0.0
2018-Jul-16 07:00N 37°56' E 023°41'0 0.0
2018-Jul-16 06:30N 37°56' E 023°41'0 0.0
2018-Jul-16 06:00N 37°56' E 023°41'0 0.0
2018-Jul-16 05:30N 37°56' E 023°41'0 0.0
2018-Jul-16 05:00N 37°56' E 023°41'0 0.0
2018-Jul-16 04:30N 37°56' E 023°41'0 0.0
2018-Jul-16 04:00N 37°56' E 023°41'0 0.0
2018-Jul-16 03:30N 37°56' E 023°41'0 0.0
2018-Jul-16 03:00N 37°56' E 023°41'0 0.0
2018-Jul-16 02:30N 37°56' E 023°41'0 0.0
2018-Jul-16 01:57N 37°56' E 023°41'0 0.0
2018-Jul-16 01:30N 37°56' E 023°41'0 0.0
2018-Jul-16 01:00N 37°56' E 023°41'0 0.0
2018-Jul-16 00:30N 37°56' E 023°41'0 0.0
2018-Jul-15 23:57N 37°56' E 023°41'0 0.0
2018-Jul-15 23:30N 37°56' E 023°41'0 0.0
2018-Jul-15 23:00N 37°56' E 023°41'0 0.0
2018-Jul-15 22:30N 37°56' E 023°41'0 0.0
2018-Jul-15 22:00N 37°56' E 023°41'0 0.0
2018-Jul-15 21:30N 37°56' E 023°41'0 0.0
2018-Jul-15 21:00N 37°56' E 023°41'0 0.0
2018-Jul-15 20:30N 37°56' E 023°41'0 0.0
2018-Jul-15 20:00N 37°56' E 023°41'0 0.0
2018-Jul-15 19:30N 37°56' E 023°41'0 0.0
2018-Jul-15 19:00N 37°56' E 023°41'0 0.0
2018-Jul-15 18:30N 37°56' E 023°41'0 0.0
2018-Jul-15 18:00N 37°56' E 023°41'0 0.0
2018-Jul-15 17:30N 37°56' E 023°41'0 0.0
2018-Jul-15 17:00N 37°56' E 023°41'0 0.0
2018-Jul-15 16:30N 37°56' E 023°41'0 0.0
2018-Jul-15 16:00N 37°56' E 023°41'0 0.0
2018-Jul-15 15:30N 37°56' E 023°41'0 0.0
2018-Jul-15 15:00N 37°56' E 023°41'0 0.0
2018-Jul-15 14:24N 37°56' E 023°41'0 0.0
2018-Jul-15 14:00N 37°56' E 023°41'0 0.0
2018-Jul-15 13:30N 37°56' E 023°41'0 0.0
2018-Jul-15 13:00N 37°56' E 023°41'0 0.0
2018-Jul-15 12:30N 37°56' E 023°41'0 0.0
2018-Jul-15 12:00N 37°56' E 023°41'0 0.0
2018-Jul-15 11:30N 37°56' E 023°41'0 0.0
2018-Jul-15 11:00N 37°56' E 023°41'0 0.0
2018-Jul-15 10:30N 37°56' E 023°41'0 0.0
2018-Jul-15 10:00N 37°56' E 023°41'0 0.0
2018-Jul-15 09:30N 37°56' E 023°41'0 0.0
2018-Jul-15 09:00N 37°56' E 023°41'0 0.0
2018-Jul-15 08:30N 37°56' E 023°41'0 0.0
2018-Jul-15 08:00N 37°56' E 023°41'0 0.0
2018-Jul-15 07:30N 37°56' E 023°41'0 0.0
2018-Jul-15 07:00N 37°56' E 023°41'0 0.0
2018-Jul-15 06:30N 37°56' E 023°41'0 0.0
2018-Jul-15 06:00N 37°56' E 023°41'0 0.0
2018-Jul-15 05:30N 37°56' E 023°41'0 0.0
2018-Jul-15 05:00N 37°56' E 023°41'0 0.0
2018-Jul-15 04:30N 37°56' E 023°41'0 0.0
2018-Jul-15 04:00N 37°56' E 023°41'0 0.0
2018-Jul-15 03:30N 37°56' E 023°41'0 0.0
2018-Jul-15 03:00N 37°56' E 023°41'0 0.0
2018-Jul-15 02:30N 37°56' E 023°41'0 0.0
2018-Jul-15 02:00N 37°56' E 023°41'0 0.0
2018-Jul-15 01:27N 37°56' E 023°41'0 0.0
2018-Jul-15 01:00N 37°56' E 023°41'0 0.0
2018-Jul-15 00:30N 37°56' E 023°41'0 0.0
2018-Jul-15 00:00N 37°56' E 023°41'0 0.0
2018-Jul-14 23:30N 37°56' E 023°41'0 0.0
2018-Jul-14 23:00N 37°56' E 023°41'0 0.0
2018-Jul-14 22:30N 37°56' E 023°41'0 0.0
2018-Jul-14 22:00N 37°56' E 023°41'0 0.0
2018-Jul-14 21:30N 37°56' E 023°41'0 0.0
2018-Jul-14 21:00N 37°56' E 023°41'0 0.0
2018-Jul-14 20:30N 37°56' E 023°41'0 0.0
2018-Jul-14 20:00N 37°56' E 023°41'0 0.0
2018-Jul-14 19:30N 37°56' E 023°41'0 0.0
2018-Jul-14 19:00N 37°56' E 023°41'0 0.0
2018-Jul-14 18:30N 37°56' E 023°41'0 0.0
2018-Jul-14 18:00N 37°56' E 023°41'0 0.0
2018-Jul-14 17:30N 37°56' E 023°41'0 0.0
2018-Jul-14 17:00N 37°56' E 023°41'0 0.0
2018-Jul-14 16:30N 37°56' E 023°41'0 0.0
2018-Jul-14 16:00N 37°56' E 023°41'0 0.0
2018-Jul-14 15:30N 37°56' E 023°41'0 0.0
2018-Jul-14 15:00N 37°56' E 023°41'0 0.0
2018-Jul-14 14:30N 37°56' E 023°41'0 0.0
2018-Jul-14 13:30N 37°56' E 023°41'0 0.0
2018-Jul-14 13:00N 37°56' E 023°41'0 0.0
2018-Jul-14 12:27N 37°56' E 023°41'0 0.0
2018-Jul-14 12:00N 37°56' E 023°41'0 0.0
2018-Jul-14 11:27N 37°56' E 023°41'0 0.0
2018-Jul-14 10:57N 37°56' E 023°41'0 0.0
2018-Jul-14 10:30N 37°56' E 023°41'0 0.0
2018-Jul-14 10:00N 37°56' E 023°41'0 0.0
2018-Jul-14 09:30N 37°56' E 023°41'0 0.0
2018-Jul-14 09:00N 37°56' E 023°41'0 0.0
2018-Jul-14 08:30N 37°56' E 023°41'0 0.0
2018-Jul-14 08:00N 37°56' E 023°41'0 0.0
2018-Jul-14 07:30N 37°56' E 023°41'0 0.0
2018-Jul-14 07:00N 37°56' E 023°41'0 0.0
2018-Jul-14 06:30N 37°56' E 023°41'0 0.0
2018-Jul-14 06:00N 37°56' E 023°41'0 0.0
2018-Jul-14 05:30N 37°56' E 023°41'0 0.0
2018-Jul-14 05:00N 37°56' E 023°41'0 0.0
2018-Jul-14 04:30N 37°56' E 023°41'0 0.0
2018-Jul-14 04:00N 37°56' E 023°41'0 0.0
2018-Jul-14 03:30N 37°56' E 023°41'0 0.0
2018-Jul-14 03:00N 37°56' E 023°41'0 0.0
2018-Jul-14 02:30N 37°56' E 023°41'0 0.0
2018-Jul-14 01:57N 37°56' E 023°41'0 0.0
2018-Jul-14 01:30N 37°56' E 023°41'0 0.0
2018-Jul-14 01:00N 37°56' E 023°41'0 0.0
2018-Jul-14 00:30N 37°56' E 023°41'0 0.0
2018-Jul-14 00:00N 37°56' E 023°41'0 0.0
2018-Jul-13 23:30N 37°56' E 023°41'0 0.0
2018-Jul-13 23:00N 37°56' E 023°41'0 0.0
2018-Jul-13 22:30N 37°56' E 023°41'0 0.0
2018-Jul-13 22:00N 37°56' E 023°41'0 0.0
2018-Jul-13 21:30N 37°56' E 023°41'0 0.0
2018-Jul-13 21:00N 37°56' E 023°41'0 0.0
2018-Jul-13 20:30N 37°56' E 023°41'0 0.0
2018-Jul-13 20:00N 37°56' E 023°41'0 0.0
2018-Jul-13 19:30N 37°56' E 023°41'0 0.0
2018-Jul-13 19:00N 37°56' E 023°41'0 0.0
2018-Jul-13 18:30N 37°56' E 023°41'0 0.0
2018-Jul-13 18:00N 37°56' E 023°41'0 0.0
2018-Jul-13 17:30N 37°56' E 023°41'0 0.0
2018-Jul-13 17:00N 37°56' E 023°41'0 0.0
2018-Jul-13 16:30N 37°56' E 023°41'0 0.0
2018-Jul-13 16:00N 37°56' E 023°41'0 0.0
2018-Jul-13 15:30N 37°56' E 023°41'0 0.0
2018-Jul-13 14:57N 37°56' E 023°41'0 0.0
2018-Jul-13 14:00N 37°56' E 023°41'0 0.0
2018-Jul-13 13:30N 37°56' E 023°41'0 0.0
2018-Jul-13 13:00N 37°56' E 023°41'0 0.0
2018-Jul-13 12:30N 37°56' E 023°41'0 0.0
2018-Jul-13 12:00N 37°56' E 023°41'0 0.0
2018-Jul-13 11:30N 37°56' E 023°41'0 0.0
2018-Jul-13 10:54N 37°56' E 023°41'0 0.0
2018-Jul-13 10:30N 37°56' E 023°41'0 0.0
2018-Jul-13 09:57N 37°56' E 023°41'0 0.0
2018-Jul-13 09:30N 37°56' E 023°41'0 0.0
2018-Jul-13 09:00N 37°56' E 023°41'0 0.0
2018-Jul-13 08:30N 37°56' E 023°41'0 0.0
2018-Jul-13 07:57N 37°56' E 023°41'0 0.0
2018-Jul-13 07:30N 37°56' E 023°41'0 0.0
2018-Jul-13 07:00N 37°56' E 023°41'0 0.0
2018-Jul-13 06:30N 37°56' E 023°41'0 0.0
2018-Jul-13 06:00N 37°56' E 023°41'0 0.0
2018-Jul-13 05:30N 37°56' E 023°41'0 0.0
2018-Jul-13 04:59N 37°56' E 023°41'0 0.0
2018-Jul-13 04:29N 37°56' E 023°41'0 0.0
2018-Jul-13 03:59N 37°56' E 023°41'0 0.0
2018-Jul-13 03:29N 37°56' E 023°41'0 0.0
2018-Jul-13 02:59N 37°56' E 023°41'0 0.0
2018-Jul-13 02:29N 37°56' E 023°41'0 0.0
2018-Jul-13 01:56N 37°56' E 023°41'0 0.0
2018-Jul-13 01:29N 37°56' E 023°41'0 0.0
2018-Jul-13 00:59N 37°56' E 023°41'0 0.0
2018-Jul-13 00:29N 37°56' E 023°41'0 0.0
2018-Jul-12 23:59N 37°56' E 023°41'0 0.0
2018-Jul-12 23:29N 37°56' E 023°41'0 0.0
2018-Jul-12 22:59N 37°56' E 023°41'0 0.0
2018-Jul-12 22:29N 37°56' E 023°41'0 0.0
2018-Jul-12 21:59N 37°56' E 023°41'0 0.0
2018-Jul-12 21:29N 37°56' E 023°41'0 0.0
2018-Jul-12 20:59N 37°56' E 023°41'0 0.0
2018-Jul-12 20:29N 37°56' E 023°41'0 0.0
2018-Jul-12 19:59N 37°56' E 023°41'0 0.0
2018-Jul-12 19:29N 37°56' E 023°41'0 0.0
2018-Jul-12 18:59N 37°56' E 023°41'0 0.0
2018-Jul-12 18:29N 37°56' E 023°41'0 0.0
2018-Jul-12 17:59N 37°56' E 023°41'0 0.0
2018-Jul-12 17:29N 37°56' E 023°41'0 0.0
2018-Jul-12 16:59N 37°56' E 023°41'0 0.0
2018-Jul-12 16:29N 37°56' E 023°41'0 0.0
2018-Jul-12 15:59N 37°56' E 023°41'0 0.0
2018-Jul-12 15:29N 37°56' E 023°41'0 0.0
2018-Jul-12 14:59N 37°56' E 023°41'0 0.0
2018-Jul-12 14:29N 37°56' E 023°41'0 0.0
2018-Jul-12 13:56N 37°56' E 023°41'0 0.0
2018-Jul-12 13:26N 37°56' E 023°41'0 0.0
2018-Jul-12 12:59N 37°56' E 023°41'0 0.0
2018-Jul-12 12:29N 37°56' E 023°41'0 0.0
2018-Jul-12 11:59N 37°56' E 023°41'0 0.0
2018-Jul-12 11:29N 37°56' E 023°41'0 0.0
2018-Jul-12 10:59N 37°56' E 023°41'0 0.0
2018-Jul-12 10:29N 37°56' E 023°41'0 0.0
2018-Jul-12 09:59N 37°56' E 023°41'0 0.0
2018-Jul-12 09:26N 37°56' E 023°41'0 0.0
2018-Jul-12 08:59N 37°56' E 023°41'0 0.0
2018-Jul-12 08:29N 37°56' E 023°41'0 0.0
2018-Jul-12 07:56N 37°56' E 023°41'0 0.0
2018-Jul-12 07:26N 37°56' E 023°41'0 0.0
2018-Jul-12 06:59N 37°56' E 023°41'0 0.0
2018-Jul-12 06:26N 37°56' E 023°41'0 0.0
2018-Jul-12 05:59N 37°56' E 023°41'0 0.0
2018-Jul-12 05:31N 37°56' E 023°41'0 0.0
2018-Jul-12 05:00N 37°56' E 023°41'0 0.0
2018-Jul-12 04:30N 37°56' E 023°41'0 0.0
2018-Jul-12 04:01N 37°56' E 023°41'0 0.0
2018-Jul-12 03:30N 37°56' E 023°41'0 0.0
2018-Jul-12 03:01N 37°56' E 023°41'0 0.0
2018-Jul-12 02:30N 37°56' E 023°41'0 0.0
2018-Jul-12 02:01N 37°56' E 023°41'0 0.0
2018-Jul-12 01:30N 37°56' E 023°41'0 0.0
2018-Jul-12 01:00N 37°56' E 023°41'0 0.0
2018-Jul-12 00:31N 37°56' E 023°41'0 0.0
2018-Jul-12 00:00N 37°56' E 023°41'0 0.0
2018-Jul-11 23:31N 37°56' E 023°41'0 0.0
2018-Jul-11 23:01N 37°56' E 023°41'0 0.0
2018-Jul-11 22:31N 37°56' E 023°41'0 0.0
2018-Jul-11 22:01N 37°56' E 023°41'0 0.0
2018-Jul-11 21:30N 37°56' E 023°41'0 0.0
2018-Jul-11 21:01N 37°56' E 023°41'0 0.0
2018-Jul-11 20:30N 37°56' E 023°41'0 0.0
2018-Jul-11 20:01N 37°56' E 023°41'0 0.0
2018-Jul-11 19:31N 37°56' E 023°41'0 0.0
2018-Jul-11 19:01N 37°56' E 023°41'0 0.0
2018-Jul-11 18:31N 37°56' E 023°41'0 0.0
2018-Jul-11 18:00N 37°56' E 023°41'1 2.4
2018-Jul-11 17:31N 37°55' E 023°40'3 6.9
2018-Jul-11 17:01N 37°53' E 023°36'5 9.1
2018-Jul-11 16:30N 37°50' E 023°32'5 9.1
2018-Jul-11 16:01N 37°48' E 023°27'4 7.9
2018-Jul-11 15:30N 37°44' E 023°24'3 4.6
2018-Jul-11 14:55N 37°42' E 023°26'0 0.0
2018-Jul-11 14:25N 37°42' E 023°26'0 0.0
2018-Jul-11 13:52N 37°42' E 023°26'0 0.0
2018-Jul-11 13:22N 37°42' E 023°26'0 0.0
2018-Jul-11 12:49N 37°42' E 023°26'0 0.1
2018-Jul-11 12:25N 37°42' E 023°26'0 0.1
2018-Jul-11 11:55N 37°42' E 023°26'0 0.0
2018-Jul-11 11:25N 37°42' E 023°26'0 0.0
2018-Jul-11 10:58N 37°42' E 023°26'0 0.7
2018-Jul-11 10:19N 37°42' E 023°27'1 3.4
2018-Jul-11 09:58N 37°43' E 023°27'0 0.0
2018-Jul-11 09:28N 37°43' E 023°27'0 0.0
2018-Jul-11 08:59N 37°43' E 023°27'0 0.0
2018-Jul-11 08:30N 37°43' E 023°27'0 0.6
2018-Jul-11 07:59N 37°43' E 023°27'5 9.2
2018-Jul-11 07:28N 37°45' E 023°21'4 9.4
2018-Jul-11 07:00N 37°46' E 023°16'5 9.6
2018-Jul-11 06:30N 37°49' E 023°11'5 9.7
2018-Jul-11 06:00N 37°52' E 023°06'5 9.4
2018-Jul-11 05:30N 37°55' E 023°01'3 5.5
2018-Jul-11 04:57N 37°57' E 022°58'510.4
2018-Jul-11 04:30N 37°59' E 022°53'4 8.9
2018-Jul-11 04:00N 38°02' E 022°49'4 8.5
2018-Jul-11 03:30N 38°04' E 022°44'  
Track history (hours):
 
Tides and Currents Weather Stations Pressure Air Temp Water Temp Dewpoint Dewpoint Depression Visibility Wind Speed Wind Dir Waves Ship Positions

Ionian Princess

Last reported at 2018-Jul-18 13:30 UTC. Time now 2018-Jul-18 14:32 UTC.
Position N 37°24' E 025°01'.

Length 42 m; draft 3 m.

Type: Ship. MMSI: 240518000.

Date/timePositionNaut miles runAvg speedWind from/ knotsBaromVisibWave heightAir tempDewpointWater temp
2018-Jul-18 13:30N 37°24' E 025°01'5 4.2
2018-Jul-18 12:25N 37°27' E 024°57'0 0.0
2018-Jul-17 17:28N 37°27' E 024°57'0 0.0
2018-Jul-17 11:44N 37°26' E 024°57'2 8.9
2018-Jul-17 11:30N 37°28' E 024°58'711.7
2018-Jul-17 10:56N 37°32' E 024°51'46 2.4
2018-Jul-16 15:11N 37°40' E 023°53'211.9
2018-Jul-16 15:00N 37°42' E 023°51'712.1
2018-Jul-16 14:27N 37°47' E 023°46'511.9
2018-Jul-16 14:00N 37°52' E 023°43'4 8.4
2018-Jul-16 13:30N 37°56' E 023°41'0 0.0
2018-Jul-16 13:00N 37°56' E 023°41'0 0.0
2018-Jul-16 12:30N 37°56' E 023°41'0 0.0
2018-Jul-16 11:57N 37°56' E 023°41'0 0.0
2018-Jul-16 11:30N 37°56' E 023°41'0 0.0
2018-Jul-16 11:00N 37°56' E 023°41'0 0.0
2018-Jul-16 10:27N 37°56' E 023°41'0 0.0
2018-Jul-16 10:00N 37°56' E 023°41'0 0.0
2018-Jul-16 09:30N 37°56' E 023°41'0 0.0
2018-Jul-16 09:00N 37°56' E 023°41'0 0.0
2018-Jul-16 08:30N 37°56' E 023°41'0 0.0
2018-Jul-16 08:00N 37°56' E 023°41'0 0.0
2018-Jul-16 07:30N 37°56' E 023°41'0 0.0
2018-Jul-16 07:00N 37°56' E 023°41'0 0.0
2018-Jul-16 06:30N 37°56' E 023°41'0 0.0
2018-Jul-16 06:00N 37°56' E 023°41'0 0.0
2018-Jul-16 05:30N 37°56' E 023°41'0 0.0
2018-Jul-16 05:00N 37°56' E 023°41'0 0.0
2018-Jul-16 04:30N 37°56' E 023°41'0 0.0
2018-Jul-16 04:00N 37°56' E 023°41'0 0.0
2018-Jul-16 03:30N 37°56' E 023°41'0 0.0
2018-Jul-16 03:00N 37°56' E 023°41'0 0.0
2018-Jul-16 02:30N 37°56' E 023°41'0 0.0
2018-Jul-16 01:57N 37°56' E 023°41'0 0.0
2018-Jul-16 01:30N 37°56' E 023°41'0 0.0
2018-Jul-16 01:00N 37°56' E 023°41'0 0.0
2018-Jul-16 00:30N 37°56' E 023°41'0 0.0
2018-Jul-15 23:57N 37°56' E 023°41'0 0.0
2018-Jul-15 23:30N 37°56' E 023°41'0 0.0
2018-Jul-15 23:00N 37°56' E 023°41'0 0.0
2018-Jul-15 22:30N 37°56' E 023°41'0 0.0
2018-Jul-15 22:00N 37°56' E 023°41'0 0.0
2018-Jul-15 21:30N 37°56' E 023°41'0 0.0
2018-Jul-15 21:00N 37°56' E 023°41'0 0.0
2018-Jul-15 20:30N 37°56' E 023°41'0 0.0
2018-Jul-15 20:00N 37°56' E 023°41'0 0.0
2018-Jul-15 19:30N 37°56' E 023°41'0 0.0
2018-Jul-15 19:00N 37°56' E 023°41'0 0.0
2018-Jul-15 18:30N 37°56' E 023°41'0 0.0
2018-Jul-15 18:00N 37°56' E 023°41'0 0.0
2018-Jul-15 17:30N 37°56' E 023°41'0 0.0
2018-Jul-15 17:00N 37°56' E 023°41'0 0.0
2018-Jul-15 16:30N 37°56' E 023°41'0 0.0
2018-Jul-15 16:00N 37°56' E 023°41'0 0.0
2018-Jul-15 15:30N 37°56' E 023°41'0 0.0
2018-Jul-15 15:00N 37°56' E 023°41'0 0.0
2018-Jul-15 14:24N 37°56' E 023°41'0 0.0
2018-Jul-15 14:00N 37°56' E 023°41'0 0.0
2018-Jul-15 13:30N 37°56' E 023°41'0 0.0
2018-Jul-15 13:00N 37°56' E 023°41'0 0.0
2018-Jul-15 12:30N 37°56' E 023°41'0 0.0
2018-Jul-15 12:00N 37°56' E 023°41'0 0.0
2018-Jul-15 11:30N 37°56' E 023°41'0 0.0
2018-Jul-15 11:00N 37°56' E 023°41'0 0.0
2018-Jul-15 10:30N 37°56' E 023°41'0 0.0
2018-Jul-15 10:00N 37°56' E 023°41'0 0.0
2018-Jul-15 09:30N 37°56' E 023°41'0 0.0
2018-Jul-15 09:00N 37°56' E 023°41'0 0.0
2018-Jul-15 08:30N 37°56' E 023°41'0 0.0
2018-Jul-15 08:00N 37°56' E 023°41'0 0.0
2018-Jul-15 07:30N 37°56' E 023°41'0 0.0
2018-Jul-15 07:00N 37°56' E 023°41'0 0.0
2018-Jul-15 06:30N 37°56' E 023°41'0 0.0
2018-Jul-15 06:00N 37°56' E 023°41'0 0.0
2018-Jul-15 05:30N 37°56' E 023°41'0 0.0
2018-Jul-15 05:00N 37°56' E 023°41'0 0.0
2018-Jul-15 04:30N 37°56' E 023°41'0 0.0
2018-Jul-15 04:00N 37°56' E 023°41'0 0.0
2018-Jul-15 03:30N 37°56' E 023°41'0 0.0
2018-Jul-15 03:00N 37°56' E 023°41'0 0.0
2018-Jul-15 02:30N 37°56' E 023°41'0 0.0
2018-Jul-15 02:00N 37°56' E 023°41'0 0.0
2018-Jul-15 01:27N 37°56' E 023°41'0 0.0
2018-Jul-15 01:00N 37°56' E 023°41'0 0.0
2018-Jul-15 00:30N 37°56' E 023°41'0 0.0
2018-Jul-15 00:00N 37°56' E 023°41'0 0.0
2018-Jul-14 23:30N 37°56' E 023°41'0 0.0
2018-Jul-14 23:00N 37°56' E 023°41'0 0.0
2018-Jul-14 22:30N 37°56' E 023°41'0 0.0
2018-Jul-14 22:00N 37°56' E 023°41'0 0.0
2018-Jul-14 21:30N 37°56' E 023°41'0 0.0
2018-Jul-14 21:00N 37°56' E 023°41'0 0.0
2018-Jul-14 20:30N 37°56' E 023°41'0 0.0
2018-Jul-14 20:00N 37°56' E 023°41'0 0.0
2018-Jul-14 19:30N 37°56' E 023°41'0 0.0
2018-Jul-14 19:00N 37°56' E 023°41'0 0.0
2018-Jul-14 18:30N 37°56' E 023°41'0 0.0
2018-Jul-14 18:00N 37°56' E 023°41'0 0.0
2018-Jul-14 17:30N 37°56' E 023°41'0 0.0
2018-Jul-14 17:00N 37°56' E 023°41'0 0.0
2018-Jul-14 16:30N 37°56' E 023°41'0 0.0
2018-Jul-14 16:00N 37°56' E 023°41'0 0.0
2018-Jul-14 15:30N 37°56' E 023°41'0 0.0
2018-Jul-14 15:00N 37°56' E 023°41'0 0.0
2018-Jul-14 14:30N 37°56' E 023°41'0 0.0
2018-Jul-14 13:30N 37°56' E 023°41'0 0.0
2018-Jul-14 13:00N 37°56' E 023°41'0 0.0
2018-Jul-14 12:27N 37°56' E 023°41'0 0.0
2018-Jul-14 12:00N 37°56' E 023°41'0 0.0
2018-Jul-14 11:27N 37°56' E 023°41'0 0.0
2018-Jul-14 10:57N 37°56' E 023°41'0 0.0
2018-Jul-14 10:30N 37°56' E 023°41'0 0.0
2018-Jul-14 10:00N 37°56' E 023°41'0 0.0
2018-Jul-14 09:30N 37°56' E 023°41'0 0.0
2018-Jul-14 09:00N 37°56' E 023°41'0 0.0
2018-Jul-14 08:30N 37°56' E 023°41'0 0.0
2018-Jul-14 08:00N 37°56' E 023°41'0 0.0
2018-Jul-14 07:30N 37°56' E 023°41'0 0.0
2018-Jul-14 07:00N 37°56' E 023°41'0 0.0
2018-Jul-14 06:30N 37°56' E 023°41'0 0.0
2018-Jul-14 06:00N 37°56' E 023°41'0 0.0
2018-Jul-14 05:30N 37°56' E 023°41'0 0.0
2018-Jul-14 05:00N 37°56' E 023°41'0 0.0
2018-Jul-14 04:30N 37°56' E 023°41'0 0.0
2018-Jul-14 04:00N 37°56' E 023°41'0 0.0
2018-Jul-14 03:30N 37°56' E 023°41'0 0.0
2018-Jul-14 03:00N 37°56' E 023°41'0 0.0
2018-Jul-14 02:30N 37°56' E 023°41'0 0.0
2018-Jul-14 01:57N 37°56' E 023°41'0 0.0
2018-Jul-14 01:30N 37°56' E 023°41'0 0.0
2018-Jul-14 01:00N 37°56' E 023°41'0 0.0
2018-Jul-14 00:30N 37°56' E 023°41'0 0.0
2018-Jul-14 00:00N 37°56' E 023°41'0 0.0
2018-Jul-13 23:30N 37°56' E 023°41'0 0.0
2018-Jul-13 23:00N 37°56' E 023°41'0 0.0
2018-Jul-13 22:30N 37°56' E 023°41'0 0.0
2018-Jul-13 22:00N 37°56' E 023°41'0 0.0
2018-Jul-13 21:30N 37°56' E 023°41'0 0.0
2018-Jul-13 21:00N 37°56' E 023°41'0 0.0
2018-Jul-13 20:30N 37°56' E 023°41'0 0.0
2018-Jul-13 20:00N 37°56' E 023°41'0 0.0
2018-Jul-13 19:30N 37°56' E 023°41'0 0.0
2018-Jul-13 19:00N 37°56' E 023°41'0 0.0
2018-Jul-13 18:30N 37°56' E 023°41'0 0.0
2018-Jul-13 18:00N 37°56' E 023°41'0 0.0
2018-Jul-13 17:30N 37°56' E 023°41'0 0.0
2018-Jul-13 17:00N 37°56' E 023°41'0 0.0
2018-Jul-13 16:30N 37°56' E 023°41'0 0.0
2018-Jul-13 16:00N 37°56' E 023°41'0 0.0
2018-Jul-13 15:30N 37°56' E 023°41'0 0.0
2018-Jul-13 14:57N 37°56' E 023°41'0 0.0
2018-Jul-13 14:00N 37°56' E 023°41'0 0.0
2018-Jul-13 13:30N 37°56' E 023°41'0 0.0
2018-Jul-13 13:00N 37°56' E 023°41'0 0.0
2018-Jul-13 12:30N 37°56' E 023°41'0 0.0
2018-Jul-13 12:00N 37°56' E 023°41'0 0.0
2018-Jul-13 11:30N 37°56' E 023°41'0 0.0
2018-Jul-13 10:54N 37°56' E 023°41'0 0.0
2018-Jul-13 10:30N 37°56' E 023°41'0 0.0
2018-Jul-13 09:57N 37°56' E 023°41'0 0.0
2018-Jul-13 09:30N 37°56' E 023°41'0 0.0
2018-Jul-13 09:00N 37°56' E 023°41'0 0.0
2018-Jul-13 08:30N 37°56' E 023°41'0 0.0
2018-Jul-13 07:57N 37°56' E 023°41'0 0.0
2018-Jul-13 07:30N 37°56' E 023°41'0 0.0
2018-Jul-13 07:00N 37°56' E 023°41'0 0.0
2018-Jul-13 06:30N 37°56' E 023°41'0 0.0
2018-Jul-13 06:00N 37°56' E 023°41'0 0.0
2018-Jul-13 05:30N 37°56' E 023°41'0 0.0
2018-Jul-13 04:59N 37°56' E 023°41'0 0.0
2018-Jul-13 04:29N 37°56' E 023°41'0 0.0
2018-Jul-13 03:59N 37°56' E 023°41'0 0.0
2018-Jul-13 03:29N 37°56' E 023°41'0 0.0
2018-Jul-13 02:59N 37°56' E 023°41'0 0.0
2018-Jul-13 02:29N 37°56' E 023°41'0 0.0
2018-Jul-13 01:56N 37°56' E 023°41'0 0.0
2018-Jul-13 01:29N 37°56' E 023°41'0 0.0
2018-Jul-13 00:59N 37°56' E 023°41'0 0.0
2018-Jul-13 00:29N 37°56' E 023°41'0 0.0
2018-Jul-12 23:59N 37°56' E 023°41'0 0.0
2018-Jul-12 23:29N 37°56' E 023°41'0 0.0
2018-Jul-12 22:59N 37°56' E 023°41'0 0.0
2018-Jul-12 22:29N 37°56' E 023°41'0 0.0
2018-Jul-12 21:59N 37°56' E 023°41'0 0.0
2018-Jul-12 21:29N 37°56' E 023°41'0 0.0
2018-Jul-12 20:59N 37°56' E 023°41'0 0.0
2018-Jul-12 20:29N 37°56' E 023°41'0 0.0
2018-Jul-12 19:59N 37°56' E 023°41'0 0.0
2018-Jul-12 19:29N 37°56' E 023°41'0 0.0
2018-Jul-12 18:59N 37°56' E 023°41'0 0.0
2018-Jul-12 18:29N 37°56' E 023°41'0 0.0
2018-Jul-12 17:59N 37°56' E 023°41'0 0.0
2018-Jul-12 17:29N 37°56' E 023°41'0 0.0
2018-Jul-12 16:59N 37°56' E 023°41'0 0.0
2018-Jul-12 16:29N 37°56' E 023°41'0 0.0
2018-Jul-12 15:59N 37°56' E 023°41'0 0.0
2018-Jul-12 15:29N 37°56' E 023°41'0 0.0
2018-Jul-12 14:59N 37°56' E 023°41'0 0.0
2018-Jul-12 14:29N 37°56' E 023°41'0 0.0
2018-Jul-12 13:56N 37°56' E 023°41'0 0.0
2018-Jul-12 13:26N 37°56' E 023°41'0 0.0
2018-Jul-12 12:59N 37°56' E 023°41'0 0.0
2018-Jul-12 12:29N 37°56' E 023°41'0 0.0
2018-Jul-12 11:59N 37°56' E 023°41'0 0.0
2018-Jul-12 11:29N 37°56' E 023°41'0 0.0
2018-Jul-12 10:59N 37°56' E 023°41'0 0.0
2018-Jul-12 10:29N 37°56' E 023°41'0 0.0
2018-Jul-12 09:59N 37°56' E 023°41'0 0.0
2018-Jul-12 09:26N 37°56' E 023°41'0 0.0
2018-Jul-12 08:59N 37°56' E 023°41'0 0.0
2018-Jul-12 08:29N 37°56' E 023°41'0 0.0
2018-Jul-12 07:56N 37°56' E 023°41'0 0.0
2018-Jul-12 07:26N 37°56' E 023°41'0 0.0
2018-Jul-12 06:59N 37°56' E 023°41'0 0.0
2018-Jul-12 06:26N 37°56' E 023°41'0 0.0
2018-Jul-12 05:59N 37°56' E 023°41'0 0.0
2018-Jul-12 05:31N 37°56' E 023°41'0 0.0
2018-Jul-12 05:00N 37°56' E 023°41'0 0.0
2018-Jul-12 04:30N 37°56' E 023°41'0 0.0
2018-Jul-12 04:01N 37°56' E 023°41'0 0.0
2018-Jul-12 03:30N 37°56' E 023°41'0 0.0
2018-Jul-12 03:01N 37°56' E 023°41'0 0.0
2018-Jul-12 02:30N 37°56' E 023°41'0 0.0
2018-Jul-12 02:01N 37°56' E 023°41'0 0.0
2018-Jul-12 01:30N 37°56' E 023°41'0 0.0
2018-Jul-12 01:00N 37°56' E 023°41'0 0.0
2018-Jul-12 00:31N 37°56' E 023°41'0 0.0
2018-Jul-12 00:00N 37°56' E 023°41'0 0.0
2018-Jul-11 23:31N 37°56' E 023°41'0 0.0
2018-Jul-11 23:01N 37°56' E 023°41'0 0.0
2018-Jul-11 22:31N 37°56' E 023°41'0 0.0
2018-Jul-11 22:01N 37°56' E 023°41'0 0.0
2018-Jul-11 21:30N 37°56' E 023°41'0 0.0
2018-Jul-11 21:01N 37°56' E 023°41'0 0.0
2018-Jul-11 20:30N 37°56' E 023°41'0 0.0
2018-Jul-11 20:01N 37°56' E 023°41'0 0.0
2018-Jul-11 19:31N 37°56' E 023°41'0 0.0
2018-Jul-11 19:01N 37°56' E 023°41'0 0.0
2018-Jul-11 18:31N 37°56' E 023°41'0 0.0
2018-Jul-11 18:00N 37°56' E 023°41'1 2.4
2018-Jul-11 17:31N 37°55' E 023°40'3 6.9
2018-Jul-11 17:01N 37°53' E 023°36'5 9.1
2018-Jul-11 16:30N 37°50' E 023°32'5 9.1
2018-Jul-11 16:01N 37°48' E 023°27'4 7.9
2018-Jul-11 15:30N 37°44' E 023°24'3 4.6
2018-Jul-11 14:55N 37°42' E 023°26'0 0.0
2018-Jul-11 14:25N 37°42' E 023°26'0 0.0
2018-Jul-11 13:52N 37°42' E 023°26'0 0.0
2018-Jul-11 13:22N 37°42' E 023°26'0 0.0
2018-Jul-11 12:49N 37°42' E 023°26'0 0.1
2018-Jul-11 12:25N 37°42' E 023°26'0 0.1
2018-Jul-11 11:55N 37°42' E 023°26'0 0.0
2018-Jul-11 11:25N 37°42' E 023°26'0 0.0
2018-Jul-11 10:58N 37°42' E 023°26'0 0.7
2018-Jul-11 10:19N 37°42' E 023°27'1 3.4
2018-Jul-11 09:58N 37°43' E 023°27'0 0.0
2018-Jul-11 09:28N 37°43' E 023°27'0 0.0
2018-Jul-11 08:59N 37°43' E 023°27'0 0.0
2018-Jul-11 08:30N 37°43' E 023°27'0 0.6
2018-Jul-11 07:59N 37°43' E 023°27'5 9.2
2018-Jul-11 07:28N 37°45' E 023°21'4 9.4
2018-Jul-11 07:00N 37°46' E 023°16'5 9.6
2018-Jul-11 06:30N 37°49' E 023°11'5 9.7
2018-Jul-11 06:00N 37°52' E 023°06'5 9.4
2018-Jul-11 05:30N 37°55' E 023°01'3 5.5
2018-Jul-11 04:57N 37°57' E 022°58'510.4
2018-Jul-11 04:30N 37°59' E 022°53'4 8.9
2018-Jul-11 04:00N 38°02' E 022°49'4 8.5
2018-Jul-11 03:30N 38°04' E 022°44'  

Dump ship's entire track history